createdAt,value
2018-07-13T00:00:26.066Z,2.90
2018-07-13T00:02:54.402Z,3.13
2018-07-13T00:05:22.718Z,3.27
2018-07-13T00:07:51.236Z,3.40
2018-07-13T00:10:19.575Z,3.63
2018-07-13T00:12:47.898Z,3.60
2018-07-13T00:15:16.225Z,3.60
2018-07-13T00:17:44.570Z,3.40
2018-07-13T00:20:12.967Z,3.87
2018-07-13T00:22:41.254Z,3.40
2018-07-13T00:25:09.339Z,3.53
2018-07-13T00:27:37.623Z,3.57
2018-07-13T00:30:06.013Z,3.43
2018-07-13T00:32:34.320Z,3.80
2018-07-13T00:35:02.737Z,4.20
2018-07-13T00:37:31.106Z,4.50
2018-07-13T00:39:59.405Z,4.73
2018-07-13T00:42:27.815Z,4.40
2018-07-13T00:44:56.269Z,3.57
2018-07-13T00:47:24.566Z,3.77
2018-07-13T00:49:52.908Z,4.30
2018-07-13T00:52:20.987Z,4.53
2018-07-13T00:54:49.291Z,4.40
2018-07-13T00:57:17.661Z,4.37
2018-07-13T00:59:46.071Z,4.07
2018-07-13T01:02:14.422Z,4.47
2018-07-13T01:04:42.728Z,4.47
2018-07-13T01:07:11.056Z,4.50
2018-07-13T01:09:39.075Z,4.70
2018-07-13T01:12:07.378Z,4.40
2018-07-13T01:14:35.723Z,4.50
2018-07-13T01:17:04.063Z,4.43
2018-07-13T01:19:32.350Z,4.50
2018-07-13T01:22:00.744Z,4.27
2018-07-13T01:24:29.050Z,5.07
2018-07-13T01:26:57.337Z,4.20
2018-07-13T01:29:27.060Z,3.77
2018-07-13T01:31:55.515Z,4.20
2018-07-13T01:34:23.849Z,4.50
2018-07-13T01:36:52.370Z,4.07
2018-07-13T01:39:20.705Z,4.70
2018-07-13T01:41:49.014Z,4.00
2018-07-13T01:44:17.392Z,4.10
2018-07-13T01:46:45.689Z,4.40
2018-07-13T01:49:14.047Z,4.07
2018-07-13T01:51:42.366Z,4.20
2018-07-13T01:54:10.694Z,4.47
2018-07-13T01:56:39.016Z,4.40
2018-07-13T01:59:07.352Z,4.87
2018-07-13T02:01:35.678Z,5.10
2018-07-13T02:04:03.801Z,4.70
2018-07-13T02:06:32.135Z,4.27
2018-07-13T02:09:00.162Z,4.30
2018-07-13T02:11:28.555Z,4.60
2018-07-13T02:13:56.900Z,4.43
2018-07-13T02:16:25.258Z,4.67
2018-07-13T02:18:53.614Z,3.73
2018-07-13T02:21:21.894Z,3.93
2018-07-13T02:23:50.208Z,4.87
2018-07-13T02:26:18.494Z,4.83
2018-07-13T02:28:46.860Z,4.30
2018-07-13T02:31:15.232Z,4.70
2018-07-13T02:33:43.599Z,3.73
2018-07-13T02:36:11.929Z,4.60
2018-07-13T02:38:40.254Z,3.80
2018-07-13T02:41:08.525Z,4.30
2018-07-13T02:43:36.958Z,4.07
2018-07-13T02:46:05.560Z,4.13
2018-07-13T02:48:33.966Z,4.30
2018-07-13T02:51:02.409Z,4.57
2018-07-13T02:53:30.727Z,4.63
2018-07-13T02:55:58.772Z,4.53
2018-07-13T02:58:27.171Z,4.97
2018-07-13T03:00:55.202Z,4.77
2018-07-13T03:03:23.568Z,4.17
2018-07-13T03:05:51.906Z,4.53
2018-07-13T03:08:19.921Z,4.27
2018-07-13T03:10:48.239Z,4.63
2018-07-13T03:13:16.336Z,4.70
2018-07-13T03:15:44.694Z,4.17
2018-07-13T03:18:12.721Z,4.50
2018-07-13T03:20:41.036Z,4.70
2018-07-13T03:23:09.114Z,4.37
2018-07-13T03:25:37.181Z,4.03
2018-07-13T03:28:05.242Z,5.07
2018-07-13T03:30:33.533Z,4.77
2018-07-13T03:33:01.816Z,4.90
2018-07-13T03:35:29.870Z,3.87
2018-07-13T03:37:58.163Z,4.63
2018-07-13T03:40:26.445Z,4.60
2018-07-13T03:42:54.509Z,4.63
2018-07-13T03:45:22.572Z,4.57
2018-07-13T03:47:50.917Z,4.83
2018-07-13T03:50:19.289Z,4.77
2018-07-13T03:52:47.610Z,4.00
2018-07-13T03:55:15.992Z,4.50
2018-07-13T03:57:44.355Z,4.77
2018-07-13T04:00:12.661Z,5.63
2018-07-13T04:02:41.021Z,4.83
2018-07-13T04:05:09.371Z,4.97
2018-07-13T04:07:37.677Z,5.23
2018-07-13T04:10:06.159Z,5.37
2018-07-13T04:12:34.565Z,5.43
2018-07-13T04:15:02.846Z,5.23
2018-07-13T04:17:31.202Z,4.60
2018-07-13T04:19:59.557Z,4.63
2018-07-13T04:22:27.946Z,4.40
2018-07-13T04:24:56.347Z,4.47
2018-07-13T04:27:25.172Z,5.10
2018-07-13T04:29:53.680Z,4.90
2018-07-13T04:32:21.999Z,5.20
2018-07-13T04:34:50.365Z,4.37
2018-07-13T04:37:18.406Z,4.00
2018-07-13T04:39:46.730Z,4.60
2018-07-13T04:42:15.071Z,5.10
2018-07-13T04:44:43.367Z,4.07
2018-07-13T04:47:11.403Z,3.90
2018-07-13T04:49:39.742Z,4.97
2018-07-13T04:52:08.166Z,5.07
2018-07-13T04:54:36.471Z,5.07
2018-07-13T04:57:04.529Z,4.80
2018-07-13T04:59:34.153Z,4.97
2018-07-13T05:02:02.510Z,4.90
2018-07-13T05:04:31.251Z,4.47
2018-07-13T05:06:59.621Z,5.27
2018-07-13T05:09:28.011Z,4.60
2018-07-13T05:11:56.383Z,4.47
2018-07-13T05:14:24.728Z,5.07
2018-07-13T05:16:53.045Z,4.53
2018-07-13T05:19:21.367Z,4.23
2018-07-13T05:21:49.783Z,4.60
2018-07-13T05:24:18.126Z,4.30
2018-07-13T05:26:46.539Z,4.30
2018-07-13T05:29:14.915Z,4.60
2018-07-13T05:31:42.988Z,4.33
2018-07-13T05:34:11.370Z,4.63
2018-07-13T05:36:39.782Z,4.40
2018-07-13T05:39:10.436Z,3.80
2018-07-13T05:41:39.138Z,4.23
2018-07-13T05:44:07.491Z,3.97
2018-07-13T05:46:35.890Z,5.07
2018-07-13T05:49:04.298Z,4.00
2018-07-13T05:51:32.637Z,4.60
2018-07-13T05:54:01.026Z,4.70
2018-07-13T05:56:29.481Z,4.47
2018-07-13T05:58:57.914Z,3.97
2018-07-13T06:01:25.981Z,4.53
2018-07-13T06:03:54.403Z,4.03
2018-07-13T06:06:22.787Z,4.30
2018-07-13T06:08:51.309Z,4.10
2018-07-13T06:11:19.705Z,4.80
2018-07-13T06:13:48.101Z,4.70
2018-07-13T06:16:16.471Z,4.47
2018-07-13T06:18:44.976Z,4.33
2018-07-13T06:21:13.434Z,5.20
2018-07-13T06:23:41.747Z,4.80
2018-07-13T06:26:10.121Z,4.83
2018-07-13T06:28:38.406Z,5.03
2018-07-13T06:31:06.835Z,5.43
2018-07-13T06:33:35.310Z,4.80
2018-07-13T06:36:03.318Z,4.90
2018-07-13T06:38:31.663Z,4.23
2018-07-13T06:40:59.795Z,5.00
2018-07-13T06:43:28.143Z,5.00
2018-07-13T06:45:56.490Z,5.00
2018-07-13T06:48:24.571Z,4.90
2018-07-13T06:50:52.957Z,4.80
2018-07-13T06:53:21.003Z,5.33
2018-07-13T06:55:49.379Z,5.20
2018-07-13T06:58:29.207Z,5.30
2018-07-13T07:01:01.602Z,5.10
2018-07-13T07:03:31.282Z,5.70
2018-07-13T07:06:03.924Z,4.80
2018-07-13T07:08:32.256Z,5.07
2018-07-13T07:11:00.647Z,4.97
2018-07-13T07:13:32.037Z,5.00
2018-07-13T07:16:00.831Z,5.93
2018-07-13T07:18:29.182Z,5.10
2018-07-13T07:20:58.235Z,6.27
2018-07-13T07:23:27.416Z,6.20
2018-07-13T07:25:56.708Z,5.77
2018-07-13T07:28:25.279Z,5.80
2018-07-13T07:30:54.197Z,5.53
2018-07-13T07:33:22.608Z,6.30
2018-07-13T07:35:50.973Z,5.87
2018-07-13T07:38:19.355Z,6.03
2018-07-13T07:40:48.244Z,6.60
2018-07-13T07:43:16.868Z,6.20
2018-07-13T07:45:44.936Z,6.50
2018-07-13T07:48:13.212Z,5.47
2018-07-13T07:50:41.353Z,5.87
2018-07-13T07:53:09.727Z,5.80
2018-07-13T07:55:38.105Z,5.73
2018-07-13T07:58:06.499Z,5.53
2018-07-13T08:00:34.859Z,5.13
2018-07-13T08:03:03.198Z,5.17
2018-07-13T08:05:31.491Z,4.90
2018-07-13T08:07:59.800Z,5.33
2018-07-13T08:10:28.144Z,4.63
2018-07-13T08:12:56.422Z,4.90
2018-07-13T08:15:24.818Z,4.83
2018-07-13T08:17:53.142Z,5.00
2018-07-13T08:20:23.097Z,5.07
2018-07-13T08:22:55.996Z,4.70
2018-07-13T08:25:25.373Z,4.27
2018-07-13T08:27:57.278Z,4.60
2018-07-13T08:30:28.692Z,4.87
2018-07-13T08:32:57.052Z,5.00
2018-07-13T08:35:25.370Z,4.37
2018-07-13T08:37:53.769Z,4.10
2018-07-13T08:40:22.093Z,4.30
2018-07-13T08:42:50.442Z,3.83
2018-07-13T08:45:18.499Z,4.00
2018-07-13T08:47:46.850Z,4.10
2018-07-13T08:50:15.293Z,4.43
2018-07-13T08:52:43.742Z,4.80
2018-07-13T08:55:13.165Z,4.20
2018-07-13T08:57:43.273Z,4.00
2018-07-13T09:00:11.267Z,3.63
2018-07-13T09:02:40.277Z,3.67
2018-07-13T09:05:09.068Z,4.27
2018-07-13T09:07:38.013Z,4.10
2018-07-13T09:10:07.641Z,3.40
2018-07-13T09:12:36.022Z,3.03
2018-07-13T09:15:04.469Z,3.03
2018-07-13T09:17:32.853Z,3.47
2018-07-13T09:20:01.220Z,3.50
2018-07-13T09:22:29.621Z,3.37
2018-07-13T09:24:57.988Z,2.83
2018-07-13T09:27:26.323Z,3.00
2018-07-13T09:29:54.666Z,3.80
2018-07-13T09:32:22.985Z,3.60
2018-07-13T09:34:51.312Z,3.47
2018-07-13T09:37:19.637Z,3.43
2018-07-13T09:39:48.050Z,3.37
2018-07-13T09:42:16.420Z,3.40
2018-07-13T09:44:44.857Z,2.90
2018-07-13T09:47:13.222Z,2.87
2018-07-13T09:49:41.510Z,2.63
2018-07-13T09:52:09.947Z,2.67
2018-07-13T09:54:38.274Z,3.20
2018-07-13T09:57:06.576Z,3.57
2018-07-13T09:59:34.933Z,2.43
2018-07-13T10:02:03.309Z,2.40
2018-07-13T10:04:31.625Z,2.60
2018-07-13T10:06:59.944Z,2.40
2018-07-13T10:09:28.294Z,2.30
2018-07-13T10:11:56.620Z,2.20
2018-07-13T10:14:24.954Z,3.27
2018-07-13T10:16:53.369Z,2.30
2018-07-13T10:19:22.572Z,2.77
2018-07-13T10:21:51.011Z,2.70
2018-07-13T10:24:20.463Z,3.00
2018-07-13T10:26:48.831Z,2.60
2018-07-13T10:29:24.844Z,2.40
2018-07-13T10:31:53.278Z,2.47
2018-07-13T10:34:22.004Z,2.33
2018-07-13T10:36:59.451Z,2.10
2018-07-13T10:39:27.807Z,2.00
2018-07-13T10:41:56.162Z,1.90
2018-07-13T10:44:24.572Z,2.10
2018-07-13T10:46:53.086Z,2.63
2018-07-13T10:49:21.398Z,2.20
2018-07-13T10:51:50.279Z,2.10
2018-07-13T10:54:18.608Z,2.10
2018-07-13T10:56:46.995Z,1.77
2018-07-13T10:59:15.453Z,1.37
2018-07-13T11:01:43.982Z,1.63
2018-07-13T11:04:13.199Z,1.27
2018-07-13T11:06:41.882Z,1.47
2018-07-13T11:09:10.874Z,1.93
2018-07-13T11:11:39.212Z,1.50
2018-07-13T11:14:07.982Z,1.40
2018-07-13T11:16:36.294Z,1.50
2018-07-13T11:19:04.670Z,1.40
2018-07-13T11:21:33.026Z,1.50
2018-07-13T11:24:01.397Z,1.40
2018-07-13T11:26:29.727Z,1.20
2018-07-13T11:28:58.156Z,1.50
2018-07-13T11:31:26.222Z,1.47
2018-07-13T11:33:54.540Z,1.50
2018-07-13T11:36:22.887Z,1.40
2018-07-13T11:38:51.219Z,1.60
2018-07-13T11:41:19.570Z,1.60
2018-07-13T11:43:47.909Z,1.10
2018-07-13T11:46:16.286Z,1.30
2018-07-13T11:48:44.620Z,1.37
2018-07-13T11:51:12.947Z,1.10
2018-07-13T11:53:41.668Z,1.27
2018-07-13T11:56:10.036Z,1.27
2018-07-13T11:58:38.362Z,1.10
2018-07-13T12:01:07.304Z,1.20
2018-07-13T12:03:35.731Z,1.30
2018-07-13T12:06:04.032Z,1.67
2018-07-13T12:08:32.355Z,1.40
2018-07-13T12:11:00.668Z,1.30
2018-07-13T12:13:28.974Z,1.10
2018-07-13T12:15:57.394Z,1.40
2018-07-13T12:18:25.712Z,1.30
2018-07-13T12:20:53.751Z,1.40
2018-07-13T12:23:22.072Z,1.33
2018-07-13T12:25:50.141Z,1.40
2018-07-13T12:28:18.179Z,1.37
2018-07-13T12:30:46.493Z,1.17
2018-07-13T12:33:14.883Z,1.30
2018-07-13T12:35:43.407Z,1.33
2018-07-13T12:38:11.839Z,1.30
2018-07-13T12:40:40.159Z,1.40
2018-07-13T12:43:08.517Z,1.40
2018-07-13T12:45:36.827Z,1.37
2018-07-13T12:48:05.244Z,1.20
2018-07-13T12:50:33.612Z,1.33
2018-07-13T12:53:01.999Z,1.40
2018-07-13T12:55:30.539Z,1.37
2018-07-13T12:57:58.997Z,1.57
2018-07-13T13:00:27.378Z,1.60
2018-07-13T13:02:55.715Z,1.70
2018-07-13T13:05:23.784Z,1.50
2018-07-13T13:07:52.140Z,1.47
2018-07-13T13:10:20.420Z,1.30
2018-07-13T13:12:48.717Z,1.40
2018-07-13T13:15:16.830Z,1.20
2018-07-13T13:17:45.123Z,1.57
2018-07-13T13:20:13.502Z,1.10
2018-07-13T13:22:41.853Z,1.20
2018-07-13T13:25:10.245Z,1.27
2018-07-13T13:27:38.555Z,1.10
2018-07-13T13:30:07.039Z,1.00
2018-07-13T13:32:35.421Z,1.30
2018-07-13T13:35:03.770Z,1.50
2018-07-13T13:37:32.139Z,1.43
2018-07-13T13:40:00.515Z,1.50
2018-07-13T13:42:28.833Z,1.10
2018-07-13T13:44:57.131Z,1.43
2018-07-13T13:47:25.197Z,1.60
2018-07-13T13:49:53.535Z,1.43
2018-07-13T13:52:21.864Z,1.50
2018-07-13T13:54:49.885Z,1.33
2018-07-13T13:57:18.198Z,1.40
2018-07-13T13:59:46.333Z,1.20
2018-07-13T14:02:14.644Z,1.20
2018-07-13T14:04:43.052Z,1.37
2018-07-13T14:07:11.352Z,1.20
2018-07-13T14:09:39.651Z,1.17
2018-07-13T14:12:08.102Z,1.63
2018-07-13T14:14:36.430Z,1.30
2018-07-13T14:17:04.819Z,1.53
2018-07-13T14:19:33.153Z,1.20
2018-07-13T14:22:01.536Z,1.50
2018-07-13T14:24:29.851Z,1.73
2018-07-13T14:26:58.199Z,1.30
2018-07-13T14:29:28.004Z,1.47
2018-07-13T14:31:56.332Z,1.20
2018-07-13T14:34:24.455Z,1.20
2018-07-13T14:36:52.770Z,1.40
2018-07-13T14:39:21.158Z,1.40
2018-07-13T14:41:49.417Z,1.67
2018-07-13T14:44:17.750Z,1.30
2018-07-13T14:46:46.201Z,1.50
2018-07-13T14:49:14.504Z,1.50
2018-07-13T14:51:42.844Z,1.57
2018-07-13T14:54:11.196Z,1.77
2018-07-13T14:56:39.541Z,1.40
2018-07-13T14:59:08.110Z,1.50
2018-07-13T15:01:36.449Z,1.57
2018-07-13T15:04:04.908Z,1.70
2018-07-13T15:06:33.007Z,1.87
2018-07-13T15:09:01.211Z,1.57
2018-07-13T15:11:29.561Z,1.63
2018-07-13T15:13:57.860Z,1.60
2018-07-13T15:16:25.911Z,1.60
2018-07-13T15:18:55.271Z,1.70
2018-07-13T15:21:23.596Z,1.60
2018-07-13T15:23:51.938Z,1.40
2018-07-13T15:26:20.291Z,1.60
2018-07-13T15:28:48.635Z,1.70
2018-07-13T15:31:16.766Z,1.80
2018-07-13T15:33:45.075Z,1.60
2018-07-13T15:36:13.420Z,1.53
2018-07-13T15:38:41.718Z,1.73
2018-07-13T15:41:10.048Z,1.27
2018-07-13T15:43:38.388Z,1.30
2018-07-13T15:46:07.335Z,1.27
2018-07-13T15:48:35.748Z,1.27
2018-07-13T15:51:04.099Z,1.40
2018-07-13T15:53:32.464Z,1.83
2018-07-13T15:56:00.768Z,1.70
2018-07-13T15:58:29.573Z,1.50
2018-07-13T16:00:57.873Z,1.53
2018-07-13T16:03:26.318Z,1.50
2018-07-13T16:05:54.901Z,1.50
2018-07-13T16:08:23.231Z,1.83
2018-07-13T16:10:51.784Z,1.53
2018-07-13T16:13:20.057Z,1.50
2018-07-13T16:15:48.382Z,1.70
2018-07-13T16:18:16.724Z,1.50
2018-07-13T16:20:44.745Z,1.60
2018-07-13T16:23:13.083Z,2.07
2018-07-13T16:25:41.414Z,1.60
2018-07-13T16:28:09.784Z,1.40
2018-07-13T16:30:38.253Z,1.30
2018-07-13T16:33:07.041Z,1.63
2018-07-13T16:35:35.546Z,1.60
2018-07-13T16:38:03.990Z,1.93
2018-07-13T16:40:32.302Z,1.40
2018-07-13T16:43:00.676Z,1.60
2018-07-13T16:45:28.995Z,1.40
2018-07-13T16:47:57.314Z,1.60
2018-07-13T16:50:25.691Z,1.40
2018-07-13T16:52:54.031Z,1.77
2018-07-13T16:55:22.567Z,1.60
2018-07-13T16:57:50.847Z,1.70
2018-07-13T17:00:19.237Z,2.00
2018-07-13T17:02:47.580Z,1.27
2018-07-13T17:05:16.061Z,1.67
2018-07-13T17:07:44.366Z,1.80
2018-07-13T17:10:12.835Z,1.50
2018-07-13T17:12:41.241Z,1.60
2018-07-13T17:15:09.592Z,1.80
2018-07-13T17:17:37.922Z,1.50
2018-07-13T17:20:05.979Z,2.10
2018-07-13T17:22:34.317Z,1.87
2018-07-13T17:25:02.658Z,1.83
2018-07-13T17:27:31.019Z,1.57
2018-07-13T17:29:59.340Z,1.50
2018-07-13T17:32:27.643Z,1.33
2018-07-13T17:34:55.952Z,1.70
2018-07-13T17:37:24.250Z,1.30
2018-07-13T17:39:52.559Z,1.83
2018-07-13T17:42:20.962Z,1.73
2018-07-13T17:44:49.316Z,1.50
2018-07-13T17:47:17.655Z,2.03
2018-07-13T17:49:45.970Z,1.63
2018-07-13T17:52:14.302Z,1.60
2018-07-13T17:54:42.316Z,1.60
2018-07-13T17:57:10.652Z,2.10
2018-07-13T17:59:39.019Z,1.40
2018-07-13T18:02:07.433Z,1.63
2018-07-13T18:04:35.748Z,2.10
2018-07-13T18:07:04.084Z,1.50
2018-07-13T18:09:32.398Z,1.60
2018-07-13T18:12:00.745Z,1.53
2018-07-13T18:14:29.066Z,1.40
2018-07-13T18:16:57.408Z,1.80
2018-07-13T18:19:25.716Z,1.40
2018-07-13T18:21:54.044Z,1.30
2018-07-13T18:24:22.381Z,1.40
2018-07-13T18:26:50.668Z,1.67
2018-07-13T18:29:19.404Z,1.50
2018-07-13T18:31:47.782Z,1.30
2018-07-13T18:34:16.626Z,1.50
2018-07-13T18:36:44.894Z,1.40
2018-07-13T18:39:13.221Z,1.50
2018-07-13T18:41:41.587Z,1.20
2018-07-13T18:44:09.641Z,1.50
2018-07-13T18:46:38.012Z,1.50
2018-07-13T18:49:06.326Z,1.27
2018-07-13T18:51:34.646Z,1.47
2018-07-13T18:54:02.950Z,1.70
2018-07-13T18:56:31.005Z,1.17
2018-07-13T18:58:59.344Z,1.40
2018-07-13T19:01:27.714Z,1.77
2018-07-13T19:03:56.018Z,1.57
2018-07-13T19:06:24.326Z,1.73
2018-07-13T19:08:52.693Z,2.43
2018-07-13T19:11:21.016Z,1.80
2018-07-13T19:13:49.475Z,1.67
2018-07-13T19:16:17.547Z,1.77
2018-07-13T19:18:45.883Z,1.30
2018-07-13T19:21:14.224Z,1.17
2018-07-13T19:23:42.603Z,1.43
2018-07-13T19:26:10.907Z,1.43
2018-07-13T19:28:39.300Z,1.60
2018-07-13T19:31:07.607Z,1.40
2018-07-13T19:33:36.020Z,1.53
2018-07-13T19:36:04.379Z,1.70
2018-07-13T19:38:32.673Z,1.70
2018-07-13T19:41:01.026Z,1.67
2018-07-13T19:43:29.325Z,1.83
2018-07-13T19:45:57.652Z,1.40
2018-07-13T19:48:26.075Z,1.60
2018-07-13T19:50:54.398Z,1.50
2018-07-13T19:53:22.748Z,1.70
2018-07-13T19:55:51.121Z,1.67
2018-07-13T19:58:19.460Z,1.57
2018-07-13T20:00:47.754Z,1.50
2018-07-13T20:03:16.064Z,1.40
2018-07-13T20:05:44.443Z,1.53
2018-07-13T20:08:12.739Z,1.77
2018-07-13T20:10:41.079Z,1.90
2018-07-13T20:13:09.360Z,1.70
2018-07-13T20:15:37.678Z,1.63
2018-07-13T20:18:06.034Z,1.80
2018-07-13T20:20:34.397Z,2.00
2018-07-13T20:23:02.682Z,2.03
2018-07-13T20:25:31.033Z,1.97
2018-07-13T20:27:59.065Z,1.90
2018-07-13T20:30:27.380Z,1.73
2018-07-13T20:32:55.395Z,1.80
2018-07-13T20:35:23.728Z,1.73
2018-07-13T20:37:51.757Z,2.10
2018-07-13T20:40:20.061Z,1.80
2018-07-13T20:42:48.443Z,1.80
2018-07-13T20:45:16.794Z,1.70
2018-07-13T20:47:45.289Z,1.90
2018-07-13T20:50:13.266Z,1.90
2018-07-13T20:52:41.606Z,1.80
2018-07-13T20:55:09.903Z,1.70
2018-07-13T20:57:38.248Z,1.97
2018-07-13T21:00:06.939Z,2.00
2018-07-13T21:02:35.285Z,2.37
2018-07-13T21:05:03.347Z,1.70
2018-07-13T21:07:31.416Z,1.83
2018-07-13T21:09:59.738Z,2.30
2018-07-13T21:12:28.087Z,2.10
2018-07-13T21:14:56.407Z,1.93
2018-07-13T21:17:24.719Z,2.60
2018-07-13T21:19:53.274Z,1.93
2018-07-13T21:22:21.579Z,2.00
2018-07-13T21:24:49.964Z,2.37
2018-07-13T21:27:18.377Z,1.93
2018-07-13T21:29:47.033Z,2.10
2018-07-13T21:32:15.056Z,2.53
2018-07-13T21:34:43.424Z,2.20
2018-07-13T21:37:11.770Z,2.00
2018-07-13T21:39:40.449Z,2.30
2018-07-13T21:42:08.514Z,1.90
2018-07-13T21:44:36.535Z,2.20
2018-07-13T21:47:05.006Z,2.23
2018-07-13T21:49:33.307Z,1.80
2018-07-13T21:52:01.695Z,2.50
2018-07-13T21:54:30.023Z,2.40
2018-07-13T21:56:58.332Z,1.80
2018-07-13T21:59:27.766Z,1.97
2018-07-13T22:01:55.872Z,2.10
2018-07-13T22:04:24.266Z,2.03
2018-07-13T22:06:52.616Z,2.03
2018-07-13T22:09:20.953Z,2.40
2018-07-13T22:11:49.339Z,2.00
2018-07-13T22:14:17.705Z,2.03
2018-07-13T22:16:46.030Z,1.80
2018-07-13T22:19:14.102Z,2.00
2018-07-13T22:21:42.203Z,2.40
2018-07-13T22:24:10.553Z,1.80
2018-07-13T22:26:38.644Z,2.10
2018-07-13T22:29:06.962Z,1.97
2018-07-13T22:31:35.283Z,2.30
2018-07-13T22:34:03.662Z,2.60
2018-07-13T22:36:31.707Z,2.10
2018-07-13T22:39:00.039Z,2.10
2018-07-13T22:41:28.401Z,2.23
2018-07-13T22:43:56.682Z,2.27
2018-07-13T22:46:25.009Z,2.27
2018-07-13T22:48:53.353Z,2.10
2018-07-13T22:51:21.669Z,2.30
2018-07-13T22:53:49.988Z,2.33
2018-07-13T22:56:18.363Z,2.10
2018-07-13T22:58:46.736Z,2.20
2018-07-13T23:01:15.092Z,2.07
2018-07-13T23:03:43.378Z,2.33
2018-07-13T23:06:17.999Z,2.10
2018-07-13T23:08:46.308Z,2.10
2018-07-13T23:11:14.663Z,2.47
2018-07-13T23:13:42.705Z,2.60
2018-07-13T23:16:11.887Z,2.53
2018-07-13T23:18:40.234Z,2.37
2018-07-13T23:21:08.592Z,2.23
2018-07-13T23:23:36.927Z,2.30
2018-07-13T23:26:05.333Z,2.60
2018-07-13T23:28:33.703Z,2.30
2018-07-13T23:31:02.060Z,2.53
2018-07-13T23:33:30.362Z,2.00
2018-07-13T23:35:58.700Z,2.40
2018-07-13T23:38:26.986Z,2.80
2018-07-13T23:40:55.291Z,2.00
2018-07-13T23:43:23.728Z,2.17
2018-07-13T23:45:52.078Z,2.00
2018-07-13T23:48:20.362Z,2.33
2018-07-13T23:50:48.723Z,2.57
2018-07-13T23:53:17.117Z,2.47
2018-07-13T23:55:45.457Z,2.57
2018-07-13T23:58:13.770Z,2.60
